createdAt,value
2024-01-05T00:01:18.807Z,6.80
2024-01-05T00:03:57.139Z,5.30
2024-01-05T00:06:39.570Z,6.10
2024-01-05T00:09:18.361Z,5.00
2024-01-05T00:11:59.591Z,6.60
2024-01-05T00:14:39.189Z,6.90
2024-01-05T00:17:16.554Z,7.10
2024-01-05T00:19:54.204Z,7.10
2024-01-05T00:22:32.229Z,7.00
2024-01-05T00:25:11.575Z,5.50
2024-01-05T00:27:49.543Z,8.00
2024-01-05T00:30:21.875Z,5.70
2024-01-05T00:32:56.597Z,4.10
2024-01-05T00:35:35.500Z,5.60
2024-01-05T00:38:13.100Z,4.70
2024-01-05T00:40:50.420Z,5.60
2024-01-05T00:43:28.385Z,4.60
2024-01-05T00:46:06.466Z,5.40
2024-01-05T00:48:43.168Z,5.60
2024-01-05T00:51:20.925Z,5.80
2024-01-05T00:53:59.340Z,5.30
2024-01-05T00:56:36.860Z,5.00
2024-01-05T00:59:16.228Z,5.10
2024-01-05T01:01:54.956Z,4.00
2024-01-05T01:04:33.277Z,4.30
2024-01-05T01:07:11.570Z,4.40
2024-01-05T01:09:41.959Z,6.00
2024-01-05T01:12:17.084Z,3.70
2024-01-05T01:14:55.302Z,4.90
2024-01-05T01:17:33.369Z,5.40
2024-01-05T01:20:12.442Z,5.50
2024-01-05T01:22:50.074Z,4.80
2024-01-05T01:25:27.922Z,3.90
2024-01-05T01:28:06.383Z,3.30
2024-01-05T01:30:43.757Z,4.60
2024-01-05T01:33:21.525Z,4.50
2024-01-05T01:35:58.368Z,4.40
2024-01-05T01:38:36.532Z,4.80
2024-01-05T01:41:14.517Z,4.10
2024-01-05T01:43:54.776Z,4.20
2024-01-05T01:46:35.119Z,3.70
2024-01-05T01:49:13.918Z,4.10
2024-01-05T01:51:51.404Z,2.90
2024-01-05T01:54:22.879Z,3.30
2024-01-05T01:56:59.238Z,4.00
2024-01-05T01:59:37.875Z,5.10
2024-01-05T02:02:16.511Z,4.10
2024-01-05T02:04:56.132Z,3.30
2024-01-05T02:07:33.790Z,3.80
2024-01-05T02:10:12.227Z,4.30
2024-01-05T02:12:49.965Z,3.10
2024-01-05T02:15:27.499Z,3.90
2024-01-05T02:18:13.531Z,3.90
2024-01-05T02:20:51.641Z,3.70
2024-01-05T02:23:32.346Z,4.10
2024-01-05T02:26:11.270Z,3.10
2024-01-05T02:28:48.475Z,3.10
2024-01-05T02:31:26.396Z,3.20
2024-01-05T02:34:04.598Z,3.90
2024-01-05T02:36:42.033Z,2.90
2024-01-05T02:39:14.618Z,3.20
2024-01-05T02:41:52.902Z,3.70
2024-01-05T02:44:23.908Z,3.10
2024-01-05T02:46:59.594Z,3.70
2024-01-05T02:49:37.744Z,4.20
2024-01-05T02:52:15.249Z,3.80
2024-01-05T02:54:53.242Z,3.80
2024-01-05T02:57:30.826Z,3.80
2024-01-05T03:00:10.655Z,3.70
2024-01-05T03:02:48.117Z,4.10
2024-01-05T03:05:25.693Z,3.20
2024-01-05T03:08:04.411Z,3.90
2024-01-05T03:10:43.049Z,2.80
2024-01-05T03:13:20.626Z,2.80
2024-01-05T03:15:58.678Z,3.20
2024-01-05T03:18:36.888Z,3.90
2024-01-05T03:21:08.691Z,3.00
2024-01-05T03:23:41.037Z,3.60
2024-01-05T03:26:20.029Z,3.30
2024-01-05T03:28:57.576Z,3.10
2024-01-05T03:31:35.113Z,3.00
2024-01-05T03:34:13.609Z,3.20
2024-01-05T03:36:50.687Z,2.90
2024-01-05T03:39:28.339Z,2.90
2024-01-05T03:42:06.033Z,2.80
2024-01-05T03:44:43.710Z,3.00
2024-01-05T03:47:21.558Z,3.50
2024-01-05T03:49:59.453Z,2.90
2024-01-05T03:52:36.909Z,2.60
2024-01-05T03:55:15.479Z,3.00
2024-01-05T03:58:16.542Z,3.10
2024-01-05T04:00:56.205Z,2.40
2024-01-05T04:03:34.284Z,3.00
2024-01-05T04:06:20.156Z,2.40
2024-01-05T04:08:58.323Z,2.30
2024-01-05T04:11:36.814Z,1.80
2024-01-05T04:14:14.865Z,1.70
2024-01-05T04:16:52.157Z,2.10
2024-01-05T04:19:31.859Z,2.30
2024-01-05T04:22:10.324Z,2.20
2024-01-05T04:24:47.734Z,2.60
2024-01-05T04:27:24.787Z,2.10
2024-01-05T04:30:02.329Z,2.00
2024-01-05T04:32:40.101Z,2.10
2024-01-05T04:35:18.094Z,2.20
2024-01-05T04:37:55.835Z,1.70
2024-01-05T04:40:26.655Z,2.10
2024-01-05T04:43:03.783Z,2.20
2024-01-05T04:45:43.101Z,1.90
2024-01-05T04:48:20.975Z,2.40
2024-01-05T04:50:57.791Z,1.90
2024-01-05T04:53:35.041Z,1.70
2024-01-05T04:56:13.641Z,1.90
2024-01-05T04:58:52.945Z,1.90
2024-01-05T05:01:30.105Z,2.30
2024-01-05T05:04:08.162Z,2.30
2024-01-05T05:06:45.907Z,2.20
2024-01-05T05:09:23.181Z,2.40
2024-01-05T05:12:01.046Z,2.30
2024-01-05T05:14:38.837Z,2.10
2024-01-05T05:17:18.769Z,2.80
2024-01-05T05:19:49.379Z,2.00
2024-01-05T05:22:25.051Z,1.70
2024-01-05T05:27:37.742Z,2.00
2024-01-05T05:30:17.044Z,1.80
2024-01-05T05:32:54.870Z,2.40
2024-01-05T05:35:32.316Z,1.70
2024-01-05T05:38:12.405Z,1.80
2024-01-05T05:40:50.247Z,2.30
2024-01-05T05:43:27.487Z,2.30
2024-01-05T05:46:05.096Z,2.60
2024-01-05T05:48:42.816Z,2.40
2024-01-05T05:51:19.973Z,2.00
2024-01-05T05:53:57.871Z,2.70
2024-01-05T05:56:28.871Z,2.30
2024-01-05T05:59:05.377Z,1.90
2024-01-05T06:01:42.946Z,2.80
2024-01-05T06:04:21.303Z,1.90
2024-01-05T06:06:58.915Z,2.70
2024-01-05T06:09:36.326Z,2.50
2024-01-05T06:12:14.326Z,2.40
2024-01-05T06:14:51.410Z,2.20
2024-01-05T06:17:28.098Z,4.40
2024-01-05T06:20:06.489Z,2.10
2024-01-05T06:22:43.609Z,2.20
2024-01-05T06:25:20.976Z,2.20
2024-01-05T06:27:58.456Z,2.50
2024-01-05T06:30:29.705Z,2.10
2024-01-05T06:33:08.565Z,2.60
2024-01-05T06:35:45.856Z,1.90
2024-01-05T06:38:23.639Z,1.90
2024-01-05T06:41:00.701Z,2.20
2024-01-05T06:43:37.772Z,2.50
2024-01-05T06:46:15.422Z,2.40
2024-01-05T06:48:51.980Z,2.50
2024-01-05T06:51:31.845Z,2.30
2024-01-05T06:54:10.262Z,2.00
2024-01-05T06:56:48.470Z,2.50
2024-01-05T06:59:28.197Z,2.10
2024-01-05T07:02:05.469Z,2.50
2024-01-05T07:04:37.702Z,1.80
2024-01-05T07:07:09.464Z,2.50
2024-01-05T07:09:47.488Z,2.30
2024-01-05T07:12:25.244Z,2.20
2024-01-05T07:15:02.736Z,2.70
2024-01-05T07:17:39.970Z,2.20
2024-01-05T07:20:18.024Z,2.50
2024-01-05T07:22:55.732Z,2.60
2024-01-05T07:25:34.547Z,2.60
2024-01-05T07:28:16.300Z,2.80
2024-01-05T07:30:53.619Z,2.50
2024-01-05T07:33:32.186Z,2.80
2024-01-05T07:36:13.007Z,2.10
2024-01-05T07:38:52.420Z,3.40
2024-01-05T07:41:30.377Z,2.10
2024-01-05T07:44:08.619Z,2.40
2024-01-05T07:46:48.524Z,1.80
2024-01-05T07:49:27.397Z,2.80
2024-01-05T07:52:04.943Z,2.80
2024-01-05T07:54:42.193Z,2.50
2024-01-05T07:57:13.611Z,2.60
2024-01-05T07:59:49.282Z,2.30
2024-01-05T08:02:26.654Z,3.10
2024-01-05T08:05:04.139Z,3.70
2024-01-05T08:07:42.559Z,2.40
2024-01-05T08:10:20.529Z,2.70
2024-01-05T08:12:57.475Z,3.20
2024-01-05T08:15:35.830Z,2.70
2024-01-05T08:18:13.308Z,3.40
2024-01-05T08:20:50.797Z,2.30
2024-01-05T08:23:28.206Z,2.30
2024-01-05T08:26:06.406Z,3.20
2024-01-05T08:28:44.096Z,3.10
2024-01-05T08:31:21.734Z,3.40
2024-01-05T08:33:52.433Z,2.90
2024-01-05T08:36:30.293Z,2.40
2024-01-05T08:39:08.508Z,3.30
2024-01-05T08:41:47.871Z,2.40
2024-01-05T08:44:26.275Z,3.00
2024-01-05T08:47:04.416Z,1.80
2024-01-05T08:49:42.342Z,2.60
2024-01-05T08:52:20.493Z,2.40
2024-01-05T08:54:58.190Z,2.30
2024-01-05T08:57:36.320Z,2.60
2024-01-05T09:00:16.635Z,2.80
2024-01-05T09:02:54.598Z,2.20
2024-01-05T09:05:32.430Z,3.10
2024-01-05T09:08:11.211Z,3.00
2024-01-05T09:10:48.623Z,2.70
2024-01-05T09:13:27.058Z,2.70
2024-01-05T09:16:04.656Z,2.40
2024-01-05T09:18:36.316Z,3.20
2024-01-05T09:21:13.683Z,2.40
2024-01-05T09:23:51.347Z,3.30
2024-01-05T09:26:30.056Z,2.50
2024-01-05T09:29:08.385Z,2.80
2024-01-05T09:31:52.943Z,3.30
2024-01-05T09:34:30.263Z,2.30
2024-01-05T09:37:07.642Z,2.50
2024-01-05T09:39:45.882Z,2.30
2024-01-05T09:42:24.512Z,2.00
2024-01-05T09:45:04.132Z,2.90
2024-01-05T09:47:42.662Z,2.30
2024-01-05T09:50:21.547Z,2.70
2024-01-05T09:53:00.496Z,2.10
2024-01-05T09:55:38.099Z,3.20
2024-01-05T09:58:17.191Z,2.70
2024-01-05T10:01:01.597Z,2.40
2024-01-05T10:03:39.600Z,2.90
2024-01-05T10:06:20.156Z,2.60
2024-01-05T10:09:01.439Z,3.10
2024-01-05T10:11:46.591Z,2.60
2024-01-05T10:14:28.681Z,2.20
2024-01-05T10:17:14.607Z,2.50
2024-01-05T10:19:51.326Z,2.20
2024-01-05T10:22:30.469Z,2.00
2024-01-05T10:25:20.302Z,2.50
2024-01-05T10:27:54.236Z,3.20
2024-01-05T10:30:32.508Z,1.70
2024-01-05T10:33:12.981Z,1.90
2024-01-05T10:35:50.220Z,2.40
2024-01-05T10:38:29.008Z,2.00
2024-01-05T10:41:11.401Z,2.30
2024-01-05T10:43:49.787Z,2.00
2024-01-05T10:46:29.951Z,2.70
2024-01-05T10:49:08.174Z,2.60
2024-01-05T10:51:46.538Z,2.70
2024-01-05T10:54:24.320Z,2.60
2024-01-05T10:57:02.378Z,2.60
2024-01-05T10:59:39.680Z,2.30
2024-01-05T11:02:48.869Z,2.50
2024-01-05T11:05:30.047Z,2.30
2024-01-05T11:08:03.287Z,2.30
2024-01-05T11:11:04.424Z,2.50
2024-01-05T11:14:14.142Z,2.50
2024-01-05T11:17:27.702Z,2.50
2024-01-05T11:20:25.765Z,3.10
2024-01-05T11:23:05.302Z,2.60
2024-01-05T11:25:42.918Z,2.50
2024-01-05T11:28:49.286Z,2.30
2024-01-05T11:31:53.761Z,3.20
2024-01-05T11:34:39.096Z,2.10
2024-01-05T11:37:28.961Z,2.90
2024-01-05T11:40:07.789Z,1.70
2024-01-05T11:42:38.771Z,2.10
2024-01-05T11:45:36.334Z,2.30
2024-01-05T11:48:38.485Z,2.10
2024-01-05T11:51:16.108Z,1.50
2024-01-05T11:53:53.603Z,1.80
2024-01-05T11:56:31.188Z,1.70
2024-01-05T11:59:10.424Z,2.30
2024-01-05T12:01:54.476Z,1.80
2024-01-05T12:04:48.214Z,1.60
2024-01-05T12:07:31.405Z,2.00
2024-01-05T12:10:09.158Z,1.80
2024-01-05T12:12:39.906Z,2.20
2024-01-05T12:15:21.569Z,1.60
2024-01-05T12:18:19.677Z,2.30
2024-01-05T12:21:14.428Z,1.70
2024-01-05T12:24:17.612Z,1.30
2024-01-05T12:26:59.056Z,1.80
2024-01-05T12:29:36.302Z,1.70
2024-01-05T12:32:14.498Z,2.00
2024-01-05T12:34:53.111Z,3.20
2024-01-05T12:37:30.156Z,1.80
2024-01-05T12:40:24.855Z,1.90
2024-01-05T12:43:02.662Z,2.70
2024-01-05T12:45:39.595Z,2.70
2024-01-05T12:48:19.820Z,1.20
2024-01-05T12:51:10.645Z,1.40
2024-01-05T12:54:05.106Z,1.80
2024-01-05T12:56:39.327Z,1.80
2024-01-05T12:59:26.615Z,3.00
2024-01-05T13:02:10.460Z,2.00
2024-01-05T13:04:42.120Z,1.90
2024-01-05T13:07:18.057Z,1.40
2024-01-05T13:09:56.265Z,1.90
2024-01-05T13:12:33.766Z,1.50
2024-01-05T13:15:12.622Z,2.40
2024-01-05T13:17:56.140Z,2.20
2024-01-05T13:20:34.449Z,1.80
2024-01-05T13:23:12.216Z,1.80
2024-01-05T13:25:49.437Z,3.10
2024-01-05T13:28:27.858Z,1.70
2024-01-05T13:31:06.609Z,2.40
2024-01-05T13:33:44.747Z,2.10
2024-01-05T13:36:21.852Z,1.60
2024-01-05T13:38:59.535Z,2.10
2024-01-05T13:41:37.641Z,1.90
2024-01-05T13:44:15.223Z,1.40
2024-01-05T13:46:53.365Z,2.30
2024-01-05T13:49:27.436Z,1.80
2024-01-05T13:52:01.093Z,1.80
2024-01-05T13:54:39.332Z,2.70
2024-01-05T13:57:17.674Z,2.10
2024-01-05T13:59:55.249Z,1.80
2024-01-05T14:02:32.716Z,1.50
2024-01-05T14:05:11.750Z,2.40
2024-01-05T14:07:48.980Z,2.50
2024-01-05T14:10:26.939Z,2.00
2024-01-05T14:13:03.788Z,2.60
2024-01-05T14:15:41.099Z,2.20
2024-01-05T14:18:17.777Z,1.90
2024-01-05T14:20:55.230Z,2.50
2024-01-05T14:23:34.361Z,3.40
2024-01-05T14:26:19.606Z,2.20
2024-01-05T14:28:58.912Z,2.40
2024-01-05T14:31:39.404Z,3.00
2024-01-05T14:34:10.979Z,2.60
2024-01-05T14:36:42.964Z,3.20
2024-01-05T14:39:22.607Z,2.20
2024-01-05T14:42:00.228Z,2.80
2024-01-05T14:44:39.309Z,2.60
2024-01-05T14:47:18.098Z,1.80
2024-01-05T14:49:55.876Z,2.00
2024-01-05T14:52:34.183Z,4.00
2024-01-05T14:55:13.785Z,2.20
2024-01-05T14:57:51.994Z,1.90
2024-01-05T15:00:30.492Z,2.00
2024-01-05T15:03:10.469Z,2.10
2024-01-05T15:05:48.924Z,2.10
2024-01-05T15:08:26.938Z,2.60
2024-01-05T15:11:07.392Z,2.70
2024-01-05T15:13:47.054Z,3.40
2024-01-05T15:16:25.599Z,3.30
2024-01-05T15:19:06.896Z,2.80
2024-01-05T15:21:56.560Z,3.80
2024-01-05T15:24:34.843Z,2.90
2024-01-05T15:27:14.424Z,2.60
2024-01-05T15:29:52.801Z,3.10
2024-01-05T15:32:31.380Z,3.40
2024-01-05T15:35:09.503Z,3.20
2024-01-05T15:37:47.379Z,3.20
2024-01-05T15:40:31.311Z,3.30
2024-01-05T15:43:11.896Z,3.60
2024-01-05T15:45:50.575Z,3.50
2024-01-05T15:48:30.272Z,4.30
2024-01-05T15:51:20.901Z,3.20
2024-01-05T15:54:01.179Z,3.40
2024-01-05T15:56:40.895Z,3.70
2024-01-05T15:59:19.800Z,3.40
2024-01-05T16:01:58.098Z,3.20
2024-01-05T16:04:36.821Z,3.20
2024-01-05T16:07:15.547Z,3.40
2024-01-05T16:09:53.323Z,3.30
2024-01-05T16:12:31.670Z,3.20
2024-01-05T16:15:14.069Z,2.80
2024-01-05T16:17:54.088Z,3.20
2024-01-05T16:20:32.854Z,3.50
2024-01-05T16:23:17.488Z,3.50
2024-01-05T16:25:56.388Z,4.10
2024-01-05T16:28:34.874Z,3.80
2024-01-05T16:31:17.450Z,3.70
2024-01-05T16:33:56.644Z,3.20
2024-01-05T16:36:34.893Z,3.40
2024-01-05T16:39:13.595Z,4.50
2024-01-05T16:41:52.522Z,2.50
2024-01-05T16:44:31.587Z,3.70
2024-01-05T16:47:11.659Z,5.40
2024-01-05T16:49:50.796Z,4.40
2024-01-05T16:52:29.963Z,4.00
2024-01-05T16:55:08.565Z,4.60
2024-01-05T16:57:48.646Z,6.10
2024-01-05T17:00:27.618Z,4.70
2024-01-05T17:03:07.200Z,5.90
2024-01-05T17:05:47.763Z,6.20
2024-01-05T17:08:26.068Z,5.80
2024-01-05T17:11:04.452Z,5.30
2024-01-05T17:13:42.686Z,4.10
2024-01-05T17:16:22.141Z,5.60
2024-01-05T17:19:00.800Z,4.10
2024-01-05T17:21:46.384Z,5.70
2024-01-05T17:24:24.810Z,4.10
2024-01-05T17:27:03.615Z,4.80
2024-01-05T17:29:42.895Z,4.40
2024-01-05T17:32:22.253Z,4.50
2024-01-05T17:34:53.323Z,4.70
2024-01-05T17:37:26.844Z,4.30
2024-01-05T17:40:07.381Z,6.00
2024-01-05T17:42:46.426Z,5.30
2024-01-05T17:45:24.679Z,5.20
2024-01-05T17:48:04.137Z,5.90
2024-01-05T17:50:42.285Z,6.10
2024-01-05T17:53:20.988Z,5.90
2024-01-05T17:55:59.076Z,5.40
2024-01-05T17:58:37.313Z,5.70
2024-01-05T18:01:16.131Z,6.60
2024-01-05T18:03:53.974Z,6.60
2024-01-05T18:06:32.028Z,6.10
2024-01-05T18:09:10.800Z,4.00
2024-01-05T18:11:49.328Z,2.50
2024-01-05T18:14:27.582Z,4.80
2024-01-05T18:17:05.174Z,4.90
2024-01-05T18:19:43.768Z,5.10
2024-01-05T18:22:22.125Z,4.50
2024-01-05T18:25:00.728Z,5.40
2024-01-05T18:27:33.824Z,4.40
2024-01-05T18:30:12.087Z,5.20
2024-01-05T18:32:49.488Z,4.60
2024-01-05T18:35:30.694Z,5.70
2024-01-05T18:38:13.242Z,5.40
2024-01-05T18:40:48.574Z,5.00
2024-01-05T18:43:27.359Z,5.50
2024-01-05T18:46:06.630Z,5.80
2024-01-05T18:48:48.511Z,5.00
2024-01-05T18:51:27.330Z,4.80
2024-01-05T18:54:07.798Z,5.40
2024-01-05T18:56:47.534Z,5.10
2024-01-05T18:59:27.105Z,4.20
2024-01-05T19:02:06.679Z,4.40
2024-01-05T19:04:38.351Z,3.70
2024-01-05T19:07:19.401Z,5.20
2024-01-05T19:09:58.600Z,4.70
2024-01-05T19:12:37.978Z,4.30
2024-01-05T19:15:17.169Z,3.10
2024-01-05T19:17:56.932Z,2.90
2024-01-05T19:20:35.919Z,4.00
2024-01-05T19:23:14.824Z,3.30
2024-01-05T19:25:54.512Z,2.60
2024-01-05T19:28:33.965Z,3.90
2024-01-05T19:31:13.342Z,4.10
2024-01-05T19:33:51.800Z,4.90
2024-01-05T19:36:30.682Z,4.80
2024-01-05T19:39:11.442Z,4.30
2024-01-05T19:41:51.667Z,5.10
2024-01-05T19:44:30.680Z,5.10
2024-01-05T19:47:11.784Z,6.20
2024-01-05T19:49:51.304Z,6.20
2024-01-05T19:52:40.050Z,6.00
2024-01-05T19:55:31.060Z,7.90
2024-01-05T19:58:10.760Z,5.40
2024-01-05T20:00:50.806Z,5.20
2024-01-05T20:03:30.841Z,4.20
2024-01-05T20:06:10.961Z,5.00
2024-01-05T20:08:50.949Z,4.10
2024-01-05T20:11:30.833Z,4.80
2024-01-05T20:14:11.147Z,3.90
2024-01-05T20:16:52.402Z,4.80
2024-01-05T20:19:31.507Z,3.80
2024-01-05T20:22:11.454Z,4.50
2024-01-05T20:24:51.140Z,4.40
2024-01-05T20:27:43.964Z,4.30
2024-01-05T20:30:15.559Z,4.00
2024-01-05T20:32:53.716Z,4.00
2024-01-05T20:35:32.148Z,4.60
2024-01-05T20:38:12.004Z,4.20
2024-01-05T20:40:51.782Z,3.80
2024-01-05T20:43:30.988Z,4.10
2024-01-05T20:46:10.694Z,3.50
2024-01-05T20:48:49.539Z,4.20
2024-01-05T20:51:29.817Z,3.80
2024-01-05T20:54:09.708Z,4.50
2024-01-05T20:56:51.020Z,4.10
2024-01-05T20:59:30.587Z,4.10
2024-01-05T21:02:11.036Z,4.30
2024-01-05T21:04:52.842Z,5.10
2024-01-05T21:07:26.461Z,4.50
2024-01-05T21:10:08.732Z,4.60
2024-01-05T21:12:49.096Z,4.90
2024-01-05T21:15:30.403Z,5.00
2024-01-05T21:18:15.835Z,5.90
2024-01-05T21:20:53.604Z,5.80
2024-01-05T21:23:33.405Z,5.70
2024-01-05T21:26:14.594Z,5.60
2024-01-05T21:28:53.777Z,6.00
2024-01-05T21:31:32.777Z,5.40
2024-01-05T21:34:13.750Z,6.40
2024-01-05T21:36:53.015Z,7.20
2024-01-05T21:39:32.982Z,6.20
2024-01-05T21:42:07.153Z,7.00
2024-01-05T21:44:46.357Z,6.30
2024-01-05T21:47:25.670Z,6.70
2024-01-05T21:50:04.102Z,6.80
2024-01-05T21:52:35.311Z,6.40
2024-01-05T21:55:15.670Z,7.50
2024-01-05T21:58:02.457Z,5.50
2024-01-05T22:00:41.387Z,6.60
2024-01-05T22:03:21.260Z,6.60
2024-01-05T22:06:00.649Z,8.10
2024-01-05T22:08:39.013Z,7.40
2024-01-05T22:11:17.766Z,7.00
2024-01-05T22:13:56.550Z,7.50
2024-01-05T22:16:35.545Z,7.90
2024-01-05T22:19:14.433Z,7.40
2024-01-05T22:21:53.740Z,7.20
2024-01-05T22:24:33.030Z,7.30
2024-01-05T22:27:18.487Z,4.50
2024-01-05T22:29:57.927Z,7.90
2024-01-05T22:32:37.310Z,6.30
2024-01-05T22:35:16.483Z,7.20
2024-01-05T22:37:55.491Z,6.70
2024-01-05T22:40:34.786Z,6.70
2024-01-05T22:43:14.075Z,6.60
2024-01-05T22:45:52.512Z,7.80
2024-01-05T22:48:35.843Z,6.60
2024-01-05T22:51:31.825Z,7.00
2024-01-05T22:54:12.821Z,6.60
2024-01-05T22:56:53.693Z,6.70
2024-01-05T22:59:33.463Z,6.80
2024-01-05T23:02:11.429Z,5.30
2024-01-05T23:04:49.562Z,6.70
2024-01-05T23:07:28.524Z,7.10
2024-01-05T23:10:07.560Z,7.00
2024-01-05T23:12:45.937Z,7.90
2024-01-05T23:15:26.133Z,6.00
2024-01-05T23:18:07.307Z,6.30
2024-01-05T23:20:46.359Z,8.50
2024-01-05T23:23:25.045Z,8.10
2024-01-05T23:26:03.609Z,8.50
2024-01-05T23:28:35.983Z,7.30
2024-01-05T23:31:17.820Z,8.80
2024-01-05T23:34:08.415Z,8.10
2024-01-05T23:39:30.790Z,8.10
2024-01-05T23:42:09.935Z,7.60
2024-01-05T23:44:47.814Z,8.20
2024-01-05T23:47:25.680Z,7.90
2024-01-05T23:50:03.303Z,7.80
2024-01-05T23:52:41.235Z,8.30
2024-01-05T23:55:19.677Z,5.30
2024-01-05T23:57:57.791Z,6.80
